Time;durP1;ratioP1;P1;durP2;ratioP2;P2;SDS_P1;SDS_P2;PMS_P1;PMS_P2;Temp;Humidity;BMP_temperature;BMP_pressure;BME280_temperature;BME280_humidity;BME280_pressure;Samples;Min_cycle;Max_cycle;Signal;HPM_P1;HPM_P2
2022/06/26 00:01:02;;;;;;;26.17;17.63;;;;;;;15.41;100.00;101045.63;10468159;28;20051;-76
2022/06/26 00:06:02;;;;;;;26.17;20.05;;;;;;;15.39;100.00;101057.88;10419661;28;20041;-76
2022/06/26 00:11:03;;;;;;;31.90;20.27;;;;;;;15.37;100.00;101054.28;10419740;28;20040;-77
2022/06/26 00:16:04;;;;;;;25.08;18.52;;;;;;;15.26;100.00;101036.38;10426654;28;20648;-77
2022/06/26 00:21:05;;;;;;;24.70;20.42;;;;;;;15.23;100.00;101049.47;10423658;28;20033;-77
2022/06/26 00:26:05;;;;;;;24.92;19.70;;;;;;;15.22;100.00;101055.59;10428743;28;20029;-77
2022/06/26 00:31:06;;;;;;;26.77;21.25;;;;;;;15.23;100.00;101043.31;10426431;28;20044;-77
2022/06/26 00:36:07;;;;;;;31.13;18.17;;;;;;;15.21;100.00;101037.09;10414818;28;20041;-76
2022/06/26 00:41:07;;;;;;;25.48;18.10;;;;;;;15.20;100.00;101030.94;10422691;28;20120;-76
2022/06/26 00:46:08;;;;;;;30.33;20.00;;;;;;;15.20;100.00;101028.28;10429860;28;20067;-77
2022/06/26 00:51:08;;;;;;;24.90;22.27;;;;;;;15.28;100.00;101036.44;10469358;28;20502;-77
2022/06/26 00:56:09;;;;;;;29.13;23.10;;;;;;;15.35;100.00;101050.72;10449638;28;20044;-76
2022/06/26 01:01:09;;;;;;;32.97;23.85;;;;;;;15.40;100.00;101057.00;10474816;28;20037;-76
2022/06/26 01:06:10;;;;;;;27.52;20.25;;;;;;;15.39;100.00;101055.22;10466823;28;20135;-76
2022/06/26 01:11:20;;;;;;;33.35;23.08;;;;;;;15.38;100.00;101058.72;10466649;28;20541;-76
2022/06/26 01:16:22;;;;;;;34.85;23.58;;;;;;;15.34;100.00;101062.09;10445150;28;20044;-76
2022/06/26 01:21:23;;;;;;;38.60;25.60;;;;;;;15.34;100.00;101078.84;10467753;28;20052;-76
2022/06/26 01:26:24;;;;;;;32.17;24.73;;;;;;;15.38;100.00;101083.34;10458633;28;20060;-77
2022/06/26 01:31:24;;;;;;;33.70;24.73;;;;;;;15.41;100.00;101079.91;10449186;28;20044;-76
2022/06/26 01:36:25;;;;;;;33.55;23.13;;;;;;;15.43;100.00;101074.69;10467914;28;20150;-76
2022/06/26 01:41:25;;;;;;;38.35;22.98;;;;;;;15.35;100.00;101072.72;10465176;28;20446;-76
2022/06/26 01:46:26;;;;;;;37.25;25.55;;;;;;;15.28;100.00;101086.56;10465126;28;20498;-76
2022/06/26 01:51:27;;;;;;;33.20;24.60;;;;;;;15.26;100.00;101085.59;10450150;28;20510;-76
2022/06/26 01:56:27;;;;;;;32.00;23.58;;;;;;;15.23;100.00;101099.56;10451589;28;20488;-76
2022/06/26 02:01:28;;;;;;;28.25;21.35;;;;;;;15.21;100.00;101093.34;10473313;28;20040;-76
2022/06/26 02:06:28;;;;;;;32.60;22.23;;;;;;;15.21;100.00;101092.47;10469444;28;20631;-76
2022/06/26 02:16:48;;;;;;;26.50;19.02;;;;;;;15.42;100.00;101089.59;10467814;28;20040;-76
2022/06/26 02:21:48;;;;;;;27.80;19.52;;;;;;;15.48;100.00;101079.25;10459899;28;20535;-76
2022/06/26 02:26:49;;;;;;;23.38;17.58;;;;;;;15.52;100.00;101082.88;10451190;28;20129;-76
2022/06/26 02:31:49;;;;;;;18.45;14.75;;;;;;;15.51;100.00;101095.16;10465134;28;20110;-76
2022/06/26 02:36:50;;;;;;;16.02;13.27;;;;;;;15.51;100.00;101086.38;10460933;28;20037;-76
2022/06/26 02:41:50;;;;;;;15.10;12.80;;;;;;;15.53;100.00;101089.97;10459515;28;20049;-76
2022/06/26 02:46:51;;;;;;;15.43;11.75;;;;;;;15.49;100.00;101093.34;10460606;28;20029;-76
2022/06/26 02:51:52;;;;;;;17.65;11.68;;;;;;;15.46;100.00;101103.81;10464225;28;20504;-76
2022/06/26 02:56:52;;;;;;;16.35;11.02;;;;;;;15.39;100.00;101124.72;10460865;28;20097;-76
2022/06/26 03:01:53;;;;;;;12.35;8.70;;;;;;;15.33;100.00;101135.06;10472226;28;20032;-77
2022/06/26 03:06:54;;;;;;;9.55;7.70;;;;;;;15.22;100.00;101139.97;10475285;28;20039;-76
2022/06/26 03:11:54;;;;;;;9.02;6.00;;;;;;;15.21;100.00;101140.81;10472174;28;20132;-76
2022/06/26 03:16:54;;;;;;;13.20;6.35;;;;;;;14.93;99.60;101154.81;10473512;28;20676;-76
2022/06/26 03:21:55;;;;;;;10.43;5.43;;;;;;;14.63;100.00;101158.13;10462285;28;20115;-76
2022/06/26 03:26:56;;;;;;;8.30;6.13;;;;;;;14.33;100.00;101166.72;10501808;28;20079;-76
2022/06/26 03:31:56;;;;;;;11.35;6.57;;;;;;;14.13;100.00;101166.88;10454938;28;20048;-76
2022/06/26 03:36:57;;;;;;;14.85;7.13;;;;;;;13.88;100.00;101186.97;10478306;28;20032;-76
2022/06/26 03:42:00;;;;;;;11.35;6.32;;;;;;;13.78;100.00;101204.09;10471269;28;20502;-78
2022/06/26 03:47:00;;;;;;;9.45;5.82;;;;;;;13.61;100.00;101195.56;10478806;28;20048;-76
2022/06/26 03:52:02;;;;;;;10.55;6.47;;;;;;;13.47;100.00;101202.88;10477583;28;20041;-75
2022/06/26 03:57:03;;;;;;;9.13;6.68;;;;;;;13.32;100.00;101207.44;10470318;28;20491;-76
2022/06/26 04:02:04;;;;;;;13.85;8.52;;;;;;;13.22;100.00;101203.56;10473137;28;20060;-77
2022/06/26 04:07:04;;;;;;;11.98;6.95;;;;;;;13.18;100.00;101209.50;10465118;28;20033;-76
2022/06/26 04:12:05;;;;;;;11.77;6.95;;;;;;;13.31;100.00;101210.91;10462957;28;20053;-75
2022/06/26 04:17:06;;;;;;;16.13;7.45;;;;;;;13.53;100.00;101227.63;10436966;28;20044;-76
2022/06/26 04:22:06;;;;;;;15.07;6.40;;;;;;;13.74;100.00;101206.56;10428635;28;20037;-76
2022/06/26 04:27:07;;;;;;;16.30;9.18;;;;;;;13.90;100.00;101210.69;10430148;28;20051;-75
2022/06/26 04:32:08;;;;;;;19.02;10.77;;;;;;;14.13;100.00;101218.59;10430620;28;20123;-76
2022/06/26 04:37:12;;;;;;;10.77;5.18;;;;;;;14.35;100.00;101229.09;10431588;28;20127;-76
2022/06/26 04:42:13;;;;;;;9.15;5.65;;;;;;;14.64;100.00;101221.41;10426895;28;20041;-75
2022/06/26 04:47:13;;;;;;;10.07;4.60;;;;;;;14.80;98.35;101236.06;10440809;28;20115;-75
2022/06/26 04:52:15;;;;;;;25.42;6.38;;;;;;;15.45;98.64;101225.97;10469641;28;20036;-74
2022/06/26 04:57:16;;;;;;;7.38;6.30;;;;;;;16.33;88.61;101219.94;10464479;28;20039;-77
2022/06/26 05:02:16;;;;;;;4.43;3.70;;;;;;;16.64;86.54;101239.34;10455105;28;20037;-77
2022/06/26 05:07:17;;;;;;;4.60;3.25;;;;;;;17.05;84.37;101229.03;10458844;28;20170;-76
2022/06/26 05:12:17;;;;;;;9.77;4.20;;;;;;;17.19;82.41;101231.16;10463241;28;20033;-76
2022/06/26 05:17:18;;;;;;;12.32;4.85;;;;;;;17.95;77.74;101239.19;10456375;28;20124;-77
2022/06/26 05:22:19;;;;;;;8.20;4.37;;;;;;;18.27;75.10;101233.78;10491252;28;20377;-77
2022/06/26 05:27:20;;;;;;;6.10;3.50;;;;;;;18.16;75.35;101232.63;10461262;28;20048;-78
2022/06/26 05:32:20;;;;;;;8.07;3.90;;;;;;;18.22;75.20;101245.09;10465836;28;20050;-78
2022/06/26 05:37:21;;;;;;;10.60;4.43;;;;;;;18.23;74.91;101262.78;10457180;28;20052;-79
2022/06/26 05:42:21;;;;;;;8.37;3.50;;;;;;;18.42;75.21;101269.41;10473767;28;20400;-76
2022/06/26 05:47:22;;;;;;;8.70;4.53;;;;;;;17.87;76.48;101286.66;10511368;28;20043;-77
2022/06/26 05:52:22;;;;;;;9.25;4.85;;;;;;;17.98;75.81;101291.31;10522761;28;20042;-77
2022/06/26 05:57:25;;;;;;;11.53;4.80;;;;;;;19.64;68.74;101277.06;10494696;28;20120;-77
2022/06/26 06:02:25;;;;;;;5.25;3.83;;;;;;;20.10;67.06;101290.22;10476593;28;20033;-79
2022/06/26 06:07:26;;;;;;;11.90;5.80;;;;;;;20.38;63.97;101300.34;10454317;28;20048;-79
2022/06/26 06:12:26;;;;;;;8.57;4.93;;;;;;;20.35;65.43;101295.91;10442042;28;20060;-79
2022/06/26 06:17:36;;;;;;;6.73;3.97;;;;;;;19.82;64.28;101296.81;10482575;28;20037;-79
2022/06/26 06:22:37;;;;;;;5.28;3.20;;;;;;;19.78;65.80;101295.88;10478290;28;20040;-79
2022/06/26 06:27:38;;;;;;;3.95;2.45;;;;;;;19.98;65.08;101305.06;10483732;28;20032;-78
2022/06/26 06:32:40;;;;;;;8.30;2.60;;;;;;;19.86;65.86;101311.06;10481710;28;20032;-79
2022/06/26 06:37:41;;;;;;;5.70;2.88;;;;;;;20.02;64.26;101310.47;10525904;28;20094;-77
2022/06/26 06:42:42;;;;;;;10.68;4.13;;;;;;;19.84;64.17;101297.72;10492390;28;20032;-77
2022/06/26 06:47:42;;;;;;;8.23;2.63;;;;;;;20.05;64.27;101301.63;10491952;28;20032;-78
2022/06/26 06:52:43;;;;;;;5.45;4.03;;;;;;;19.47;65.43;101311.28;10489578;28;20125;-77
2022/06/26 06:57:44;;;;;;;5.75;3.05;;;;;;;19.18;68.55;101330.22;10490986;28;20593;-78
2022/06/26 07:02:44;;;;;;;8.57;3.28;;;;;;;18.73;69.42;101347.81;10490277;28;20036;-78
2022/06/26 07:07:45;;;;;;;5.03;2.53;;;;;;;19.95;66.09;101353.75;10490605;28;20053;-77
2022/06/26 07:12:56;;;;;;;7.88;3.47;;;;;;;21.06;62.67;101365.09;10488089;28;20062;-77
2022/06/26 07:17:56;;;;;;;6.68;4.03;;;;;;;21.91;59.34;101375.75;10488710;28;20059;-78
2022/06/26 07:22:57;;;;;;;6.67;3.57;;;;;;;21.35;62.15;101372.50;10489365;28;20148;-78
2022/06/26 07:27:57;;;;;;;4.97;3.17;;;;;;;20.14;63.79;101380.59;10490407;28;20036;-77
2022/06/26 07:33:02;;;;;;;6.35;2.92;;;;;;;19.51;64.81;101386.53;10489378;28;20123;-78
2022/06/26 07:38:02;;;;;;;5.35;2.90;;;;;;;19.44;67.36;101385.56;10487956;28;20039;-77
2022/06/26 07:43:03;;;;;;;7.07;2.92;;;;;;;19.45;66.33;101394.41;10488992;28;20064;-77
2022/06/26 07:48:04;;;;;;;7.15;3.13;;;;;;;19.48;67.00;101398.03;10489202;28;20043;-78
2022/06/26 07:53:04;;;;;;;5.00;2.83;;;;;;;19.36;65.16;101408.41;10487985;28;20033;-78
2022/06/26 07:58:05;;;;;;;5.95;2.25;;;;;;;19.40;66.68;101383.72;10487098;28;20044;-77
2022/06/26 08:03:10;;;;;;;4.75;2.53;;;;;;;19.46;65.37;101388.22;10488497;28;20071;-77
2022/06/26 08:08:10;;;;;;;4.72;2.53;;;;;;;19.50;66.82;101400.69;10486966;28;20063;-77
2022/06/26 08:13:11;;;;;;;4.45;2.53;;;;;;;19.42;67.12;101407.59;10485637;28;20170;-77
2022/06/26 08:18:11;;;;;;;6.72;2.00;;;;;;;19.47;67.74;101416.56;10489488;28;20037;-78
2022/06/26 08:23:12;;;;;;;8.63;2.88;;;;;;;19.62;66.47;101419.50;10486137;28;20111;-78
2022/06/26 08:28:12;;;;;;;3.50;1.52;;;;;;;19.50;64.76;101401.59;10488105;28;20044;-77
2022/06/26 08:33:13;;;;;;;5.00;2.20;;;;;;;19.05;66.93;101410.41;10486621;28;20043;-78
2022/06/26 08:38:13;;;;;;;6.13;2.78;;;;;;;18.78;68.53;101415.09;10487299;28;20127;-77
2022/06/26 08:43:14;;;;;;;4.10;2.08;;;;;;;18.48;70.05;101407.34;10485093;28;20526;-78
2022/06/26 08:48:14;;;;;;;7.35;2.20;;;;;;;18.41;70.33;101411.59;10492606;28;20043;-78
2022/06/26 08:53:15;;;;;;;5.60;2.80;;;;;;;18.37;71.20;101412.38;10522748;28;20352;-77
2022/06/26 08:58:16;;;;;;;3.73;2.13;;;;;;;18.28;71.85;101412.16;10508782;28;20510;-77
2022/06/26 09:03:16;;;;;;;4.68;2.22;;;;;;;18.21;71.57;101405.81;10519445;28;20128;-78
2022/06/26 09:08:18;;;;;;;6.68;2.30;;;;;;;18.29;71.08;101413.94;10527769;28;20042;-79
2022/06/26 09:13:19;;;;;;;3.33;2.20;;;;;;;18.40;69.27;101423.06;10522603;28;20036;-78
2022/06/26 09:18:19;;;;;;;4.88;1.80;;;;;;;18.64;69.94;101412.16;10503797;28;20044;-77
2022/06/26 09:23:20;;;;;;;4.43;1.88;;;;;;;18.90;68.08;101405.63;10488605;28;20045;-77
2022/06/26 09:28:21;;;;;;;4.00;2.65;;;;;;;19.02;68.75;101413.00;10499526;28;20054;-77
2022/06/26 09:33:25;;;;;;;4.50;2.22;;;;;;;19.10;68.41;101435.28;10511732;28;20032;-77
2022/06/26 09:38:27;;;;;;;6.80;2.55;;;;;;;19.05;67.86;101439.59;10516276;27;20033;-78
2022/06/26 09:43:35;;;;;;;;;;;;;;;19.10;67.59;101442.31;10483813;28;20048;-78
2022/06/26 09:48:36;;;;;;;4.72;2.53;;;;;;;18.85;69.69;101447.06;10482714;28;19916;-78
2022/06/26 09:53:37;;;;;;;8.93;2.75;;;;;;;18.81;70.43;101450.50;10523434;28;20029;-78
2022/06/26 09:58:38;;;;;;;5.30;2.95;;;;;;;18.68;71.28;101454.63;10505243;28;20395;-78
2022/06/26 10:09:01;;;;;;;3.85;2.45;;;;;;;18.39;71.89;101466.31;10484503;28;20029;-77
2022/06/26 10:14:13;;;;;;;5.50;2.10;;;;;;;18.22;73.00;101468.53;10493816;28;20038;-78
2022/06/26 10:19:27;;;;;;;4.22;2.60;;;;;;;18.23;74.58;101467.69;10493400;28;20040;-77
2022/06/26 10:24:28;;;;;;;3.85;2.63;;;;;;;18.08;75.62;101476.13;10523052;28;20046;-77
2022/06/26 10:29:33;;;;;;;6.13;2.60;;;;;;;17.89;77.43;101486.19;10516018;28;20055;-76
2022/06/26 10:34:34;;;;;;;6.40;2.75;;;;;;;17.81;80.77;101485.06;10517325;28;20036;-77
2022/06/26 10:39:41;;;;;;;8.10;3.70;;;;;;;17.72;81.96;101498.06;10491239;28;20484;-77
2022/06/26 10:44:45;;;;;;;7.03;2.78;;;;;;;17.73;82.34;101482.22;10493028;28;20495;-78
2022/06/26 10:49:50;;;;;;;9.20;3.53;;;;;;;17.48;85.43;101504.44;10484119;28;20492;-77
2022/06/26 10:54:51;;;;;;;5.47;3.30;;;;;;;17.23;87.31;101503.69;10510812;28;20388;-76
2022/06/26 10:59:51;;;;;;;6.75;3.90;;;;;;;17.11;90.22;101520.09;10485343;28;20051;-77
2022/06/26 11:04:52;;;;;;;10.40;5.63;;;;;;;17.13;91.27;101509.56;10460743;28;20131;-77
2022/06/26 11:09:55;;;;;;;7.63;4.00;;;;;;;17.40;89.64;101496.28;10461887;28;20038;-77
2022/06/26 11:14:56;;;;;;;6.00;4.03;;;;;;;17.63;87.04;101485.47;10431035;28;20451;-77
2022/06/26 11:25:33;;;;;;;14.90;5.30;;;;;;;17.79;85.53;101470.00;10421838;28;20041;-78
2022/06/26 11:30:37;;;;;;;6.70;4.03;;;;;;;17.79;84.42;101451.50;10429159;28;20033;-77
2022/06/26 11:35:40;;;;;;;5.40;4.00;;;;;;;18.16;82.51;101436.59;10453809;28;20040;-77
2022/06/26 11:40:42;;;;;;;6.45;4.38;;;;;;;18.92;82.08;101447.25;10480466;28;20060;-76
2022/06/26 11:45:43;;;;;;;6.18;3.42;;;;;;;19.34;79.58;101460.53;10444802;28;20201;-77
2022/06/26 11:50:47;;;;;;;11.45;4.70;;;;;;;19.37;76.15;101453.53;10450380;28;20049;-76
2022/06/26 11:56:01;;;;;;;5.25;2.60;;;;;;;19.26;77.06;101460.38;10477355;28;20043;-78
2022/06/26 12:01:09;;;;;;;7.35;3.25;;;;;;;19.46;73.48;101460.81;10513902;28;20618;-79
2022/06/26 12:06:10;;;;;;;3.70;2.30;;;;;;;19.98;71.22;101461.78;10462620;28;20119;-77
2022/06/26 12:11:10;;;;;;;4.63;1.88;;;;;;;20.32;72.98;101465.03;10496980;28;20124;-76
2022/06/26 12:16:11;;;;;;;5.38;2.40;;;;;;;20.62;72.54;101466.41;10526741;28;20462;-77
2022/06/26 12:21:15;;;;;;;8.93;2.22;;;;;;;20.27;70.62;101485.34;10496517;28;20039;-79
2022/06/26 12:26:18;;;;;;;6.03;1.88;;;;;;;19.81;71.06;101486.25;10487556;28;20047;-78
2022/06/26 12:31:19;;;;;;;5.45;2.30;;;;;;;19.67;73.75;101486.00;10488111;28;20186;-79
2022/06/26 12:36:20;;;;;;;5.00;2.35;;;;;;;19.92;73.24;101474.09;10485775;28;20091;-79
2022/06/26 12:41:20;;;;;;;4.10;1.98;;;;;;;20.42;67.45;101459.00;10514986;28;20064;-80
2022/06/26 12:46:21;;;;;;;6.70;2.83;;;;;;;21.19;63.90;101461.03;10486291;28;20123;-80
2022/06/26 12:51:21;;;;;;;15.95;10.07;;;;;;;21.97;62.04;101462.88;10482186;28;20511;-80
2022/06/26 12:56:22;;;;;;;5.40;3.00;;;;;;;22.07;62.55;101451.41;10490644;28;20043;-80
2022/06/26 13:01:23;;;;;;;6.60;2.93;;;;;;;22.18;58.89;101447.97;10527478;28;20070;-80
2022/06/26 13:06:23;;;;;;;3.03;2.03;;;;;;;21.78;60.76;101448.44;10503474;28;20052;-84
2022/06/26 13:11:24;;;;;;;5.50;2.90;;;;;;;22.15;60.60;101435.47;10503106;28;20412;-82
2022/06/26 13:16:24;;;;;;;6.70;2.00;;;;;;;22.14;60.96;101431.03;10522718;28;20529;-82
2022/06/26 13:21:25;;;;;;;3.47;2.10;;;;;;;21.56;60.87;101449.09;10491777;28;20078;-82
2022/06/26 13:26:26;;;;;;;4.50;1.90;;;;;;;21.03;61.98;101458.19;10487751;28;20480;-82
2022/06/26 13:31:26;;;;;;;6.47;3.00;;;;;;;20.45;62.49;101456.41;10494513;28;20132;-80
2022/06/26 13:36:27;;;;;;;7.03;1.98;;;;;;;20.15;66.60;101455.03;10516624;28;20044;-79
2022/06/26 13:41:27;;;;;;;6.22;1.90;;;;;;;20.09;63.77;101462.88;10441356;28;20060;-85
2022/06/26 13:46:28;;;;;;;3.72;2.00;;;;;;;19.97;66.58;101475.94;10506553;28;20038;-83
2022/06/26 13:51:29;;;;;;;3.67;1.50;;;;;;;20.16;62.89;101455.94;10513225;28;20079;-81
2022/06/26 13:56:30;;;;;;;3.83;2.05;;;;;;;20.51;62.60;101442.31;10488582;28;20126;-82
2022/06/26 14:01:30;;;;;;;3.28;1.88;;;;;;;20.79;60.39;101435.69;10497580;28;20059;-81
2022/06/26 14:06:31;;;;;;;5.22;2.10;;;;;;;21.09;58.92;101436.09;10465452;28;20056;-82
2022/06/26 14:11:31;;;;;;;4.00;2.50;;;;;;;21.76;58.43;101434.22;10483440;28;20139;-82
2022/06/26 14:16:32;;;;;;;5.47;3.37;;;;;;;21.60;56.88;101447.34;10515929;28;20484;-85
2022/06/26 14:21:32;;;;;;;6.77;2.70;;;;;;;21.08;62.02;101458.25;10521986;28;20072;-85
2022/06/26 14:26:33;;;;;;;6.43;1.70;;;;;;;20.83;61.80;101447.28;10482086;28;20060;-80
2022/06/26 14:31:33;;;;;;;3.72;2.20;;;;;;;20.65;63.23;101442.53;10480349;28;20083;-78
2022/06/26 14:36:34;;;;;;;6.07;2.00;;;;;;;20.67;64.38;101432.81;10521700;28;20044;-78
2022/06/26 14:41:34;;;;;;;4.28;1.80;;;;;;;21.04;60.43;101438.69;10522243;28;20127;-85
2022/06/26 14:46:35;;;;;;;5.20;2.20;;;;;;;21.00;61.04;101446.63;10481938;28;20037;-82
2022/06/26 14:51:35;;;;;;;4.27;1.80;;;;;;;20.81;62.28;101443.69;10484596;28;20119;-83
2022/06/26 14:56:36;;;;;;;3.53;1.83;;;;;;;20.72;61.69;101440.88;10482658;28;20072;-83
2022/06/26 15:01:36;;;;;;;3.30;1.65;;;;;;;20.59;63.02;101450.41;10485699;28;20515;-82
2022/06/26 15:06:37;;;;;;;6.72;2.70;;;;;;;20.63;65.51;101430.97;10491767;28;20068;-82
2022/06/26 15:11:38;;;;;;;3.13;2.05;;;;;;;20.92;63.49;101422.56;10523325;28;20050;-81
2022/06/26 15:16:38;;;;;;;4.85;1.95;;;;;;;20.98;59.83;101419.97;10527028;28;20178;-80
2022/06/26 15:21:39;;;;;;;3.07;1.50;;;;;;;20.71;62.44;101420.47;10522126;28;20071;-81
2022/06/26 15:26:39;;;;;;;4.57;1.50;;;;;;;20.88;62.48;101404.75;10526555;28;20041;-82
2022/06/26 15:31:40;;;;;;;6.80;3.17;;;;;;;20.88;59.45;101397.69;10504901;28;20074;-83
2022/06/26 15:36:40;;;;;;;5.05;1.50;;;;;;;20.70;56.00;101387.63;10483789;28;20040;-81
2022/06/26 15:41:41;;;;;;;8.75;1.60;;;;;;;20.52;57.67;101372.34;10489035;28;20045;-81
2022/06/26 15:46:41;;;;;;;3.35;1.80;;;;;;;20.33;65.37;101372.06;10504044;28;20131;-82
2022/06/26 15:51:44;;;;;;;3.20;1.60;;;;;;;20.25;64.32;101365.72;10485841;28;20507;-81
2022/06/26 15:56:45;;;;;;;6.57;2.28;;;;;;;20.30;59.93;101364.03;10540967;28;20043;-80
2022/06/26 16:01:48;;;;;;;6.25;4.25;;;;;;;20.10;64.85;101371.69;10498562;28;20037;-79
2022/06/26 16:06:48;;;;;;;4.93;2.22;;;;;;;19.95;68.21;101364.38;10490575;28;20159;-77
2022/06/26 16:11:49;;;;;;;8.85;3.72;;;;;;;20.17;65.49;101370.91;10486686;28;20089;-78
2022/06/26 16:16:49;;;;;;;2.85;1.45;;;;;;;20.34;64.52;101367.63;10489035;28;20060;-80
2022/06/26 16:27:09;;;;;;;8.95;2.63;;;;;;;20.19;65.91;101361.19;10489270;28;20033;-79
2022/06/26 16:32:09;;;;;;;6.57;1.90;;;;;;;20.30;66.75;101357.81;10487023;28;20036;-80
2022/06/26 16:37:10;;;;;;;3.67;2.00;;;;;;;20.22;67.81;101344.41;10485427;28;20036;-80
2022/06/26 16:42:10;;;;;;;4.78;2.08;;;;;;;19.98;69.91;101347.56;10511034;28;20119;-80
2022/06/26 16:47:11;;;;;;;6.75;2.05;;;;;;;19.61;67.60;101342.50;10507597;28;20501;-80
2022/06/26 16:52:11;;;;;;;5.03;2.38;;;;;;;19.40;70.42;101350.94;10510317;28;20024;-81
2022/06/26 16:57:12;;;;;;;6.63;1.67;;;;;;;19.18;71.24;101342.56;10489406;28;20372;-81
2022/06/26 17:02:12;;;;;;;8.23;3.60;;;;;;;18.96;74.41;101338.56;10485520;28;22206;-79
2022/06/26 17:07:14;;;;;;;4.90;2.25;;;;;;;18.83;73.07;101326.81;10507046;28;20059;-78
2022/06/26 17:12:14;;;;;;;7.70;2.90;;;;;;;18.78;74.47;101322.28;10508085;28;20048;-79
2022/06/26 17:17:15;;;;;;;4.07;2.42;;;;;;;18.69;75.59;101323.88;10483631;28;20326;-81
2022/06/26 17:22:16;;;;;;;7.30;3.08;;;;;;;18.92;71.45;101305.78;10500114;28;20044;-78
2022/06/26 17:27:16;;;;;;;5.90;3.03;;;;;;;18.56;75.70;101285.59;10501136;28;20128;-79
2022/06/26 17:32:17;;;;;;;5.25;2.55;;;;;;;18.18;79.20;101313.91;10468995;28;20037;-81
2022/06/26 17:37:18;;;;;;;5.85;2.85;;;;;;;18.04;80.24;101310.03;10504204;28;20456;-80
2022/06/26 17:42:19;;;;;;;3.63;2.47;;;;;;;18.14;82.48;101327.06;10485594;28;20049;-79
2022/06/26 17:52:56;;;;;;;5.90;2.22;;;;;;;18.34;80.28;101346.06;10380552;28;20033;-80
2022/06/26 17:57:57;;;;;;;61.47;40.83;;;;;;;18.22;79.51;101341.38;10453322;28;20044;-80
2022/06/26 18:03:02;;;;;;;7.10;4.32;;;;;;;18.13;82.26;101343.81;10506719;28;20473;-82
2022/06/26 18:08:03;;;;;;;9.32;3.15;;;;;;;18.07;81.37;101331.31;10525838;28;20445;-79
2022/06/26 18:13:04;;;;;;;6.70;3.78;;;;;;;17.95;81.22;101342.47;10485913;28;20048;-79
2022/06/26 18:18:05;;;;;;;4.55;2.90;;;;;;;17.74;80.71;101356.97;10485859;28;20443;-79
2022/06/26 18:23:06;;;;;;;6.47;3.22;;;;;;;17.63;83.74;101345.19;10524461;28;20040;-79
2022/06/26 18:28:07;;;;;;;9.27;3.03;;;;;;;17.42;84.90;101335.84;10505053;28;20031;-79
2022/06/26 18:33:07;;;;;;;11.20;3.40;;;;;;;17.27;86.57;101335.41;10497335;28;20041;-79
2022/06/26 18:38:08;;;;;;;7.53;2.92;;;;;;;17.11;87.98;101331.44;10502232;28;20524;-80
2022/06/26 18:43:09;;;;;;;11.05;3.65;;;;;;;16.97;89.18;101329.28;10435586;28;20090;-80
2022/06/26 18:48:11;;;;;;;6.40;3.45;;;;;;;16.88;88.88;101340.47;10484472;28;20040;-80
2022/06/26 18:53:11;;;;;;;;;;;;;;;16.88;89.23;101348.41;10520161;28;20559;-81
2022/06/26 18:58:12;;;;;;;8.13;3.95;;;;;;;16.68;88.67;101363.66;10486323;28;19920;-80
2022/06/26 19:03:12;;;;;;;10.18;4.88;;;;;;;16.62;90.62;101349.38;10485889;28;20500;-80
2022/06/26 19:08:13;;;;;;;8.20;3.53;;;;;;;16.50;92.84;101352.53;10451271;28;20035;-79
2022/06/26 19:18:33;;;;;;;9.15;3.78;;;;;;;16.20;94.35;101341.06;10509450;28;20062;-80
2022/06/26 19:23:33;;;;;;;5.20;3.92;;;;;;;16.03;94.90;101342.25;10471206;28;20536;-79
2022/06/26 19:28:34;;;;;;;9.15;4.05;;;;;;;15.90;95.04;101360.31;10482746;28;20051;-78
2022/06/26 19:33:34;;;;;;;9.38;4.53;;;;;;;15.79;96.15;101370.47;10480723;28;20127;-78
2022/06/26 19:38:35;;;;;;;7.72;4.75;;;;;;;15.67;nan;101367.41;10440936;28;20086;-78
2022/06/26 19:43:35;;;;;;;10.23;5.38;;;;;;;15.63;97.81;101391.88;10533777;28;20453;-78
2022/06/26 19:48:36;;;;;;;12.43;5.10;;;;;;;15.55;98.30;101392.50;10512454;28;20038;-79
2022/06/26 19:53:37;;;;;;;9.25;4.88;;;;;;;15.48;98.63;101379.94;10496026;28;20075;-78
2022/06/26 19:58:37;;;;;;;9.07;5.43;;;;;;;15.39;98.67;101369.06;10487140;28;20111;-78
2022/06/26 20:03:56;;;;;;;11.10;5.55;;;;;;;15.30;99.07;101369.66;10479714;28;20136;-77
2022/06/26 20:08:57;;;;;;;9.95;4.88;;;;;;;15.22;99.92;101371.97;10464986;28;20490;-77
2022/06/26 20:13:57;;;;;;;9.27;5.03;;;;;;;15.21;100.00;101359.63;10499490;28;20044;-78
2022/06/26 20:18:58;;;;;;;11.40;5.10;;;;;;;15.14;100.00;101367.28;10488887;28;20547;-79
2022/06/26 20:23:58;;;;;;;8.60;5.50;;;;;;;15.09;100.00;101370.66;10488238;28;20039;-79
2022/06/26 20:28:59;;;;;;;7.93;5.38;;;;;;;15.06;100.00;101351.16;10507836;28;20035;-80
2022/06/26 20:34:00;;;;;;;10.63;5.43;;;;;;;15.04;100.00;101360.75;10490288;28;20047;-80
2022/06/26 20:39:00;;;;;;;9.85;5.55;;;;;;;15.04;100.00;101366.03;10520105;28;20174;-79
2022/06/26 20:44:01;;;;;;;10.18;5.10;;;;;;;15.03;100.00;101366.88;10498036;28;20070;-78
2022/06/26 20:49:02;;;;;;;18.20;7.15;;;;;;;15.01;100.00;101358.00;10498174;28;20079;-79
2022/06/26 20:54:03;;;;;;;9.70;7.17;;;;;;;14.97;100.00;101372.81;10498353;28;20167;-78
2022/06/26 20:59:03;;;;;;;11.50;6.55;;;;;;;14.94;100.00;101378.88;10475216;28;20033;-79
2022/06/26 21:04:04;;;;;;;16.25;6.10;;;;;;;14.92;100.00;101377.91;10520596;28;20118;-79
2022/06/26 21:09:05;;;;;;;12.88;6.82;;;;;;;14.95;100.00;101366.59;10514724;28;20131;-79
2022/06/26 21:14:07;;;;;;;9.40;6.43;;;;;;;14.93;100.00;101350.72;10521111;28;20131;-79
2022/06/26 21:19:08;;;;;;;14.70;6.70;;;;;;;14.91;100.00;101338.34;10506113;28;20546;-79
2022/06/26 21:24:09;;;;;;;12.90;7.35;;;;;;;14.90;100.00;101332.16;10508790;28;20036;-79
2022/06/26 21:29:09;;;;;;;13.55;6.78;;;;;;;14.94;100.00;101346.34;10492936;28;20131;-79
2022/06/26 21:34:10;;;;;;;12.20;7.38;;;;;;;14.93;100.00;101340.16;10474721;28;20043;-79
2022/06/26 21:39:11;;;;;;;9.68;7.65;;;;;;;14.92;100.00;101333.09;10506329;28;20451;-79
2022/06/26 21:44:11;;;;;;;10.50;7.18;;;;;;;14.96;100.00;101323.59;10510419;28;20051;-79
2022/06/26 21:49:12;;;;;;;11.50;6.40;;;;;;;14.94;100.00;101322.63;10501841;28;20060;-78
2022/06/26 21:54:14;;;;;;;10.90;8.20;;;;;;;14.89;100.00;101319.81;10525448;28;20547;-79
2022/06/26 21:59:14;;;;;;;10.40;7.63;;;;;;;14.85;100.00;101320.53;10507027;28;20041;-78
2022/06/26 22:04:15;;;;;;;13.70;9.55;;;;;;;14.83;100.00;101315.22;10484275;28;20036;-79
2022/06/26 22:09:15;;;;;;;10.60;9.07;;;;;;;14.80;100.00;101316.84;10503185;28;20048;-78
2022/06/26 22:14:16;;;;;;;16.05;10.38;;;;;;;14.82;100.00;101315.16;10507435;28;20111;-79
2022/06/26 22:19:16;;;;;;;14.38;11.43;;;;;;;14.79;100.00;101317.69;10496484;28;20155;-78
2022/06/26 22:24:17;;;;;;;19.25;12.40;;;;;;;14.79;100.00;101325.59;10489984;28;20495;-79
2022/06/26 22:29:18;;;;;;;23.08;12.40;;;;;;;14.77;100.00;101312.38;10486975;28;20434;-78
2022/06/26 22:34:18;;;;;;;13.80;10.75;;;;;;;14.77;100.00;101316.72;10524444;28;20128;-78
2022/06/26 22:39:19;;;;;;;19.27;13.40;;;;;;;14.76;100.00;101299.13;10514244;28;20037;-79
2022/06/26 22:44:19;;;;;;;21.10;13.93;;;;;;;14.71;100.00;101305.94;10512503;28;20184;-79
2022/06/26 22:49:20;;;;;;;18.73;13.60;;;;;;;14.69;100.00;101303.25;10508360;28;20459;-79
2022/06/26 22:54:21;;;;;;;21.98;13.90;;;;;;;14.71;100.00;101300.69;10524839;28;20040;-78
2022/06/26 22:59:21;;;;;;;24.15;16.05;;;;;;;14.71;100.00;101292.78;10487796;28;20049;-79
2022/06/26 23:04:22;;;;;;;20.27;15.95;;;;;;;14.69;100.00;101300.59;10466669;28;20435;-78
2022/06/26 23:09:23;;;;;;;27.92;15.93;;;;;;;14.64;100.00;101300.41;10512224;28;20067;-78
2022/06/26 23:14:23;;;;;;;25.95;16.58;;;;;;;14.62;100.00;101317.03;10509550;28;20502;-82
2022/06/26 23:19:24;;;;;;;32.22;21.48;;;;;;;14.54;100.00;101317.63;10510519;28;20044;-79